<?xml version="1.0" encoding="UTF-8" standalone="no" ?>
<gpx xmlns="http://www.topografix.com/GPX/1/1" xmlns:xsi="http://www.w3.org/2001/XMLSchema-instance" xsi:schemaLocation="http://www.topografix.com/GPX/1/1 http://www.topografix.com/GPX/1/1/gpx.xsd" version="1.1" creator="VisuGPX - https://www.visugpx.com">
  <metadata>
    <name>Traversée Jura 4jours</name>
    <desc><![CDATA[Mont dole & crêt de la neige]]></desc>
  </metadata>
  <trk>
    <name><![CDATA[--Rousses (Les)-- OR-1698316:jura 4 jours juillet 2012]]></name>
    <trkseg>
      <trkpt lat="46.48434" lon="6.06181">
        <ele>1123</ele>
        <time>2015-12-25T01:34:48Z</time>
      </trkpt>
      <trkpt lat="46.48316" lon="6.05728">
        <ele>1124</ele>
        <time>2015-12-25T01:36:48Z</time>
      </trkpt>
      <trkpt lat="46.48258" lon="6.05123">
        <ele>1093</ele>
        <time>2015-12-25T01:38:48Z</time>
      </trkpt>
      <trkpt lat="46.48071" lon="6.04893">
        <ele>1079</ele>
        <time>2015-12-25T01:40:48Z</time>
      </trkpt>
      <trkpt lat="46.47856" lon="6.04684">
        <ele>1045</ele>
        <time>2015-12-25T01:42:48Z</time>
      </trkpt>
      <trkpt lat="46.47568" lon="6.04893">
        <ele>1064</ele>
        <time>2015-12-25T01:44:48Z</time>
      </trkpt>
      <trkpt lat="46.47252" lon="6.05102">
        <ele>1059</ele>
        <time>2015-12-25T01:46:48Z</time>
      </trkpt>
      <trkpt lat="46.46979" lon="6.05164">
        <ele>1061</ele>
        <time>2015-12-25T01:48:48Z</time>
      </trkpt>
      <trkpt lat="46.4649" lon="6.05373">
        <ele>1049</ele>
        <time>2015-12-25T01:50:48Z</time>
      </trkpt>
      <trkpt lat="46.46318" lon="6.05979">
        <ele>1078</ele>
        <time>2015-12-25T01:52:48Z</time>
      </trkpt>
      <trkpt lat="46.46045" lon="6.05979">
        <ele>1075</ele>
        <time>2015-12-25T01:54:48Z</time>
      </trkpt>
      <trkpt lat="46.45714" lon="6.06375">
        <ele>1125</ele>
        <time>2015-12-25T01:56:48Z</time>
      </trkpt>
      <trkpt lat="46.45427" lon="6.06626">
        <ele>1157</ele>
        <time>2015-12-25T01:58:48Z</time>
      </trkpt>
      <trkpt lat="46.45269" lon="6.06354">
        <ele>1210</ele>
        <time>2015-12-25T02:00:48Z</time>
      </trkpt>
      <trkpt lat="46.44938" lon="6.06271">
        <ele>1314</ele>
        <time>2015-12-25T02:02:48Z</time>
      </trkpt>
      <trkpt lat="46.44694" lon="6.06501">
        <ele>1388</ele>
        <time>2015-12-25T02:04:48Z</time>
      </trkpt>
      <trkpt lat="46.44493" lon="6.06856">
        <ele>1415</ele>
        <time>2015-12-25T02:06:48Z</time>
      </trkpt>
      <trkpt lat="46.44478" lon="6.06396">
        <ele>1403</ele>
        <time>2015-12-25T02:08:48Z</time>
      </trkpt>
      <trkpt lat="46.44579" lon="6.06229">
        <ele>1387</ele>
        <time>2015-12-25T02:10:48Z</time>
      </trkpt>
      <trkpt lat="46.44421" lon="6.05832">
        <ele>1356</ele>
        <time>2015-12-25T02:12:48Z</time>
      </trkpt>
      <trkpt lat="46.44277" lon="6.05728">
        <ele>1361</ele>
        <time>2015-12-25T02:14:48Z</time>
      </trkpt>
      <trkpt lat="46.44061" lon="6.05937">
        <ele>1369</ele>
        <time>2015-12-25T02:16:48Z</time>
      </trkpt>
      <trkpt lat="46.44004" lon="6.05958">
        <ele>1366</ele>
        <time>2015-12-25T02:18:48Z</time>
      </trkpt>
      <trkpt lat="46.43731" lon="6.06208">
        <ele>1397</ele>
        <time>2015-12-25T02:20:48Z</time>
      </trkpt>
      <trkpt lat="46.43544" lon="6.06313">
        <ele>1395</ele>
        <time>2015-12-25T02:22:48Z</time>
      </trkpt>
      <trkpt lat="46.43012" lon="6.06083">
        <ele>1385</ele>
        <time>2015-12-25T02:24:48Z</time>
      </trkpt>
      <trkpt lat="46.42811" lon="6.05436">
        <ele>1363</ele>
        <time>2015-12-25T02:26:48Z</time>
      </trkpt>
      <trkpt lat="46.42337" lon="6.0506">
        <ele>1347</ele>
        <time>2015-12-25T02:28:48Z</time>
      </trkpt>
      <trkpt lat="46.42351" lon="6.0435">
        <ele>1389</ele>
        <time>2015-12-25T02:30:48Z</time>
      </trkpt>
      <trkpt lat="46.42423" lon="6.03452">
        <ele>1345</ele>
        <time>2015-12-25T02:32:48Z</time>
      </trkpt>
      <trkpt lat="46.42437" lon="6.02993">
        <ele>1305</ele>
        <time>2015-12-25T02:34:48Z</time>
      </trkpt>
      <trkpt lat="46.41848" lon="6.02471">
        <ele>1394</ele>
        <time>2015-12-25T02:36:48Z</time>
      </trkpt>
      <trkpt lat="46.41474" lon="6.02032">
        <ele>1462</ele>
        <time>2015-12-25T02:38:48Z</time>
      </trkpt>
      <trkpt lat="46.4123" lon="6.02325">
        <ele>1459</ele>
        <time>2015-12-25T02:40:48Z</time>
      </trkpt>
      <trkpt lat="46.4146" lon="6.02826">
        <ele>1418</ele>
        <time>2015-12-25T02:42:48Z</time>
      </trkpt>
      <trkpt lat="46.41704" lon="6.03348">
        <ele>1402</ele>
        <time>2015-12-25T02:44:48Z</time>
      </trkpt>
      <trkpt lat="46.41546" lon="6.03703">
        <ele>1359</ele>
        <time>2015-12-25T02:46:48Z</time>
      </trkpt>
      <trkpt lat="46.41374" lon="6.03598">
        <ele>1370</ele>
        <time>2015-12-25T02:48:48Z</time>
      </trkpt>
      <trkpt lat="46.41158" lon="6.03348">
        <ele>1390</ele>
        <time>2015-12-25T02:50:48Z</time>
      </trkpt>
      <trkpt lat="46.40569" lon="6.02617">
        <ele>1367</ele>
        <time>2015-12-25T02:52:48Z</time>
      </trkpt>
      <trkpt lat="46.40008" lon="6.01656">
        <ele>1290</ele>
        <time>2015-12-25T02:54:48Z</time>
      </trkpt>
      <trkpt lat="46.39462" lon="6.00821">
        <ele>1263</ele>
        <time>2015-12-25T02:56:48Z</time>
      </trkpt>
      <trkpt lat="46.3916" lon="6.00717">
        <ele>1262</ele>
        <time>2015-12-25T02:58:48Z</time>
      </trkpt>
      <trkpt lat="46.38715" lon="6.00529">
        <ele>1269</ele>
        <time>2015-12-25T03:00:48Z</time>
      </trkpt>
      <trkpt lat="46.38341" lon="5.99986">
        <ele>1278</ele>
        <time>2015-12-25T03:02:48Z</time>
      </trkpt>
      <trkpt lat="46.38082" lon="6.00445">
        <ele>1310</ele>
        <time>2015-12-25T03:04:48Z</time>
      </trkpt>
      <trkpt lat="46.37766" lon="6.00028">
        <ele>1274</ele>
        <time>2015-12-25T03:06:48Z</time>
      </trkpt>
      <trkpt lat="46.37421" lon="5.99443">
        <ele>1256</ele>
        <time>2015-12-25T03:08:48Z</time>
      </trkpt>
      <trkpt lat="46.37047" lon="5.98545">
        <ele>1211</ele>
        <time>2015-12-25T03:10:48Z</time>
      </trkpt>
      <trkpt lat="46.37421" lon="5.97647">
        <ele>1174</ele>
        <time>2015-12-25T03:12:48Z</time>
      </trkpt>
      <trkpt lat="46.37306" lon="5.97355">
        <ele>1168</ele>
        <time>2015-12-25T03:14:48Z</time>
      </trkpt>
      <trkpt lat="46.36904" lon="5.9675">
        <ele>1164</ele>
        <time>2015-12-25T03:16:48Z</time>
      </trkpt>
      <trkpt lat="46.36544" lon="5.9606">
        <ele>1184</ele>
        <time>2015-12-25T03:18:48Z</time>
      </trkpt>
      <trkpt lat="46.36343" lon="5.95852">
        <ele>1206</ele>
        <time>2015-12-25T03:20:48Z</time>
      </trkpt>
      <trkpt lat="46.36444" lon="5.95643">
        <ele>1213</ele>
        <time>2015-12-25T03:22:48Z</time>
      </trkpt>
      <trkpt lat="46.35739" lon="5.95184">
        <ele>1254</ele>
        <time>2015-12-25T03:24:48Z</time>
      </trkpt>
      <trkpt lat="46.35394" lon="5.94536">
        <ele>1310</ele>
        <time>2015-12-25T03:26:48Z</time>
      </trkpt>
      <trkpt lat="46.35251" lon="5.94181">
        <ele>1314</ele>
        <time>2015-12-25T03:28:48Z</time>
      </trkpt>
      <trkpt lat="46.35021" lon="5.93659">
        <ele>1318</ele>
        <time>2015-12-25T03:30:48Z</time>
      </trkpt>
      <trkpt lat="46.3459" lon="5.93242">
        <ele>1294</ele>
        <time>2015-12-25T03:32:48Z</time>
      </trkpt>
      <trkpt lat="46.3436" lon="5.92908">
        <ele>1284</ele>
        <time>2015-12-25T03:34:48Z</time>
      </trkpt>
      <trkpt lat="46.34403" lon="5.92427">
        <ele>1262</ele>
        <time>2015-12-25T03:36:48Z</time>
      </trkpt>
      <trkpt lat="46.3459" lon="5.92198">
        <ele>1260</ele>
        <time>2015-12-25T03:38:48Z</time>
      </trkpt>
      <trkpt lat="46.3492" lon="5.92072">
        <ele>1219</ele>
        <time>2015-12-25T03:40:48Z</time>
      </trkpt>
      <trkpt lat="46.35294" lon="5.92031">
        <ele>1199</ele>
        <time>2015-12-25T03:42:48Z</time>
      </trkpt>
      <trkpt lat="46.35107" lon="5.91738">
        <ele>1196</ele>
        <time>2015-12-25T03:44:48Z</time>
      </trkpt>
      <trkpt lat="46.34805" lon="5.91383">
        <ele>1200</ele>
        <time>2015-12-25T03:46:48Z</time>
      </trkpt>
      <trkpt lat="46.34791" lon="5.9082">
        <ele>1205</ele>
        <time>2015-12-25T03:48:48Z</time>
      </trkpt>
      <trkpt lat="46.34834" lon="5.90423">
        <ele>1178</ele>
        <time>2015-12-25T03:50:48Z</time>
      </trkpt>
      <trkpt lat="46.34475" lon="5.90402">
        <ele>1180</ele>
        <time>2015-12-25T03:52:48Z</time>
      </trkpt>
      <trkpt lat="46.34302" lon="5.90026">
        <ele>1156</ele>
        <time>2015-12-25T03:54:48Z</time>
      </trkpt>
      <trkpt lat="46.33957" lon="5.90172">
        <ele>1142</ele>
        <time>2015-12-25T03:56:48Z</time>
      </trkpt>
      <trkpt lat="46.33943" lon="5.89734">
        <ele>1133</ele>
        <time>2015-12-25T03:58:48Z</time>
      </trkpt>
      <trkpt lat="46.33885" lon="5.89546">
        <ele>1140</ele>
        <time>2015-12-25T04:00:48Z</time>
      </trkpt>
      <trkpt lat="46.33598" lon="5.89254">
        <ele>1138</ele>
        <time>2015-12-25T04:02:48Z</time>
      </trkpt>
      <trkpt lat="46.33282" lon="5.89421">
        <ele>1123</ele>
        <time>2015-12-25T04:04:48Z</time>
      </trkpt>
      <trkpt lat="46.33123" lon="5.89441">
        <ele>1143</ele>
        <time>2015-12-25T04:06:48Z</time>
      </trkpt>
      <trkpt lat="46.32922" lon="5.89233">
        <ele>1165</ele>
        <time>2015-12-25T04:08:48Z</time>
      </trkpt>
      <trkpt lat="46.32721" lon="5.89024">
        <ele>1163</ele>
        <time>2015-12-25T04:10:48Z</time>
      </trkpt>
      <trkpt lat="46.32534" lon="5.88961">
        <ele>1160</ele>
        <time>2015-12-25T04:12:48Z</time>
      </trkpt>
      <trkpt lat="46.32721" lon="5.88606">
        <ele>1138</ele>
        <time>2015-12-25T04:14:48Z</time>
      </trkpt>
      <trkpt lat="46.32807" lon="5.88293">
        <ele>1172</ele>
        <time>2015-12-25T04:16:48Z</time>
      </trkpt>
      <trkpt lat="46.33008" lon="5.88293">
        <ele>1180</ele>
        <time>2015-12-25T04:18:48Z</time>
      </trkpt>
      <trkpt lat="46.32836" lon="5.88001">
        <ele>1211</ele>
        <time>2015-12-25T04:20:48Z</time>
      </trkpt>
      <trkpt lat="46.32549" lon="5.87834">
        <ele>1212</ele>
        <time>2015-12-25T04:22:48Z</time>
      </trkpt>
      <trkpt lat="46.32218" lon="5.87771">
        <ele>1220</ele>
        <time>2015-12-25T04:24:48Z</time>
      </trkpt>
      <trkpt lat="46.31887" lon="5.87604">
        <ele>1215</ele>
        <time>2015-12-25T04:26:48Z</time>
      </trkpt>
      <trkpt lat="46.316" lon="5.87291">
        <ele>1212</ele>
        <time>2015-12-25T04:28:48Z</time>
      </trkpt>
      <trkpt lat="46.31312" lon="5.87541">
        <ele>1213</ele>
        <time>2015-12-25T04:30:48Z</time>
      </trkpt>
      <trkpt lat="46.31068" lon="5.87687">
        <ele>1212</ele>
        <time>2015-12-25T04:32:48Z</time>
      </trkpt>
      <trkpt lat="46.30824" lon="5.875">
        <ele>1202</ele>
        <time>2015-12-25T04:34:48Z</time>
      </trkpt>
      <trkpt lat="46.30594" lon="5.87458">
        <ele>1167</ele>
        <time>2015-12-25T04:36:48Z</time>
      </trkpt>
      <trkpt lat="46.30163" lon="5.87249">
        <ele>1149</ele>
        <time>2015-12-25T04:38:48Z</time>
      </trkpt>
      <trkpt lat="46.30349" lon="5.86831">
        <ele>1133</ele>
        <time>2015-12-25T04:40:48Z</time>
      </trkpt>
      <trkpt lat="46.30378" lon="5.86414">
        <ele>1128</ele>
        <time>2015-12-25T04:42:48Z</time>
      </trkpt>
      <trkpt lat="46.30177" lon="5.86205">
        <ele>1148</ele>
        <time>2015-12-25T04:44:48Z</time>
      </trkpt>
      <trkpt lat="46.29803" lon="5.86372">
        <ele>1182</ele>
        <time>2015-12-25T04:46:48Z</time>
      </trkpt>
      <trkpt lat="46.29645" lon="5.86142">
        <ele>1186</ele>
        <time>2015-12-25T04:48:48Z</time>
      </trkpt>
      <trkpt lat="46.2976" lon="5.85766">
        <ele>1165</ele>
        <time>2015-12-25T04:50:48Z</time>
      </trkpt>
      <trkpt lat="46.29358" lon="5.85766">
        <ele>1189</ele>
        <time>2015-12-25T04:52:48Z</time>
      </trkpt>
      <trkpt lat="46.28998" lon="5.8585">
        <ele>1214</ele>
        <time>2015-12-25T04:54:48Z</time>
      </trkpt>
      <trkpt lat="46.28682" lon="5.85829">
        <ele>1213</ele>
        <time>2015-12-25T04:56:48Z</time>
      </trkpt>
      <trkpt lat="46.28438" lon="5.85579">
        <ele>1211</ele>
        <time>2015-12-25T04:58:48Z</time>
      </trkpt>
      <trkpt lat="46.28208" lon="5.85871">
        <ele>1265</ele>
        <time>2015-12-25T05:00:48Z</time>
      </trkpt>
      <trkpt lat="46.27849" lon="5.86163">
        <ele>1237</ele>
        <time>2015-12-25T05:02:48Z</time>
      </trkpt>
      <trkpt lat="46.2759" lon="5.85871">
        <ele>1264</ele>
        <time>2015-12-25T05:04:48Z</time>
      </trkpt>
      <trkpt lat="46.27259" lon="5.86226">
        <ele>1308</ele>
        <time>2015-12-25T05:06:48Z</time>
      </trkpt>
      <trkpt lat="46.26929" lon="5.86706">
        <ele>1293</ele>
        <time>2015-12-25T05:08:48Z</time>
      </trkpt>
      <trkpt lat="46.27274" lon="5.87437">
        <ele>1318</ele>
        <time>2015-12-25T05:10:48Z</time>
      </trkpt>
      <trkpt lat="46.27633" lon="5.87875">
        <ele>1323</ele>
        <time>2015-12-25T05:12:48Z</time>
      </trkpt>
      <trkpt lat="46.28165" lon="5.88397">
        <ele>1323</ele>
        <time>2015-12-25T05:14:48Z</time>
      </trkpt>
      <trkpt lat="46.28625" lon="5.88836">
        <ele>1336</ele>
        <time>2015-12-25T05:16:48Z</time>
      </trkpt>
      <trkpt lat="46.29013" lon="5.89212">
        <ele>1295</ele>
        <time>2015-12-25T05:18:48Z</time>
      </trkpt>
      <trkpt lat="46.29401" lon="5.89358">
        <ele>1269</ele>
        <time>2015-12-25T05:20:48Z</time>
      </trkpt>
      <trkpt lat="46.2989" lon="5.89441">
        <ele>1259</ele>
        <time>2015-12-25T05:22:48Z</time>
      </trkpt>
      <trkpt lat="46.29559" lon="5.89776">
        <ele>1312</ele>
        <time>2015-12-25T05:24:48Z</time>
      </trkpt>
      <trkpt lat="46.29372" lon="5.89817">
        <ele>1347</ele>
        <time>2015-12-25T05:26:48Z</time>
      </trkpt>
      <trkpt lat="46.29185" lon="5.89629">
        <ele>1337</ele>
        <time>2015-12-25T05:28:48Z</time>
      </trkpt>
      <trkpt lat="46.28998" lon="5.89629">
        <ele>1339</ele>
        <time>2015-12-25T05:30:48Z</time>
      </trkpt>
      <trkpt lat="46.28812" lon="5.89859">
        <ele>1296</ele>
        <time>2015-12-25T05:32:48Z</time>
      </trkpt>
      <trkpt lat="46.29113" lon="5.90277">
        <ele>1257</ele>
        <time>2015-12-25T05:34:48Z</time>
      </trkpt>
      <trkpt lat="46.29501" lon="5.90569">
        <ele>1248</ele>
        <time>2015-12-25T05:36:48Z</time>
      </trkpt>
      <trkpt lat="46.29947" lon="5.90778">
        <ele>1235</ele>
        <time>2015-12-25T05:38:48Z</time>
      </trkpt>
      <trkpt lat="46.30421" lon="5.9084">
        <ele>1242</ele>
        <time>2015-12-25T05:40:48Z</time>
      </trkpt>
      <trkpt lat="46.30551" lon="5.91404">
        <ele>1270</ele>
        <time>2015-12-25T05:42:48Z</time>
      </trkpt>
      <trkpt lat="46.30666" lon="5.92135">
        <ele>1227</ele>
        <time>2015-12-25T05:44:48Z</time>
      </trkpt>
      <trkpt lat="46.30464" lon="5.92365">
        <ele>1137</ele>
        <time>2015-12-25T05:46:48Z</time>
      </trkpt>
      <trkpt lat="46.30234" lon="5.92114">
        <ele>1184</ele>
        <time>2015-12-25T05:48:48Z</time>
      </trkpt>
      <trkpt lat="46.2989" lon="5.9201">
        <ele>1164</ele>
        <time>2015-12-25T05:50:48Z</time>
      </trkpt>
      <trkpt lat="46.29588" lon="5.91926">
        <ele>1122</ele>
        <time>2015-12-25T05:52:48Z</time>
      </trkpt>
      <trkpt lat="46.29545" lon="5.92386">
        <ele>945</ele>
        <time>2015-12-25T05:54:48Z</time>
      </trkpt>
      <trkpt lat="46.30005" lon="5.92761">
        <ele>929</ele>
        <time>2015-12-25T05:56:48Z</time>
      </trkpt>
      <trkpt lat="46.30062" lon="5.93325">
        <ele>857</ele>
        <time>2015-12-25T05:58:48Z</time>
      </trkpt>
      <trkpt lat="46.30191" lon="5.94014">
        <ele>890</ele>
        <time>2015-12-25T06:00:48Z</time>
      </trkpt>
      <trkpt lat="46.29976" lon="5.94369">
        <ele>1019</ele>
        <time>2015-12-25T06:02:48Z</time>
      </trkpt>
      <trkpt lat="46.30263" lon="5.94933">
        <ele>1106</ele>
        <time>2015-12-25T06:04:48Z</time>
      </trkpt>
      <trkpt lat="46.30091" lon="5.94954">
        <ele>1168</ele>
        <time>2015-12-25T06:06:48Z</time>
      </trkpt>
      <trkpt lat="46.29688" lon="5.94829">
        <ele>1238</ele>
        <time>2015-12-25T06:08:48Z</time>
      </trkpt>
      <trkpt lat="46.29818" lon="5.95413">
        <ele>1307</ele>
        <time>2015-12-25T06:10:48Z</time>
      </trkpt>
      <trkpt lat="46.29458" lon="5.95538">
        <ele>1403</ele>
        <time>2015-12-25T06:12:48Z</time>
      </trkpt>
      <trkpt lat="46.29056" lon="5.95371">
        <ele>1454</ele>
        <time>2015-12-25T06:14:48Z</time>
      </trkpt>
      <trkpt lat="46.2874" lon="5.94829">
        <ele>1470</ele>
        <time>2015-12-25T06:16:48Z</time>
      </trkpt>
      <trkpt lat="46.28337" lon="5.94432">
        <ele>1475</ele>
        <time>2015-12-25T06:18:48Z</time>
      </trkpt>
      <trkpt lat="46.27949" lon="5.94223">
        <ele>1492</ele>
        <time>2015-12-25T06:20:48Z</time>
      </trkpt>
      <trkpt lat="46.27518" lon="5.94014">
        <ele>1528</ele>
        <time>2015-12-25T06:22:48Z</time>
      </trkpt>
      <trkpt lat="46.27231" lon="5.93576">
        <ele>1571</ele>
        <time>2015-12-25T06:24:48Z</time>
      </trkpt>
      <trkpt lat="46.26828" lon="5.93576">
        <ele>1648</ele>
        <time>2015-12-25T06:26:48Z</time>
      </trkpt>
      <trkpt lat="46.2644" lon="5.93346">
        <ele>1647</ele>
        <time>2015-12-25T06:28:48Z</time>
      </trkpt>
      <trkpt lat="46.26023" lon="5.93075">
        <ele>1628</ele>
        <time>2015-12-25T06:30:48Z</time>
      </trkpt>
      <trkpt lat="46.25707" lon="5.92949">
        <ele>1691</ele>
        <time>2015-12-25T06:32:48Z</time>
      </trkpt>
      <trkpt lat="46.25463" lon="5.92553">
        <ele>1656</ele>
        <time>2015-12-25T06:34:48Z</time>
      </trkpt>
      <trkpt lat="46.25089" lon="5.92281">
        <ele>1644</ele>
        <time>2015-12-25T06:36:48Z</time>
      </trkpt>
      <trkpt lat="46.24514" lon="5.92198">
        <ele>1643</ele>
        <time>2015-12-25T06:38:48Z</time>
      </trkpt>
      <trkpt lat="46.23968" lon="5.91947">
        <ele>1575</ele>
        <time>2015-12-25T06:40:48Z</time>
      </trkpt>
      <trkpt lat="46.23494" lon="5.91759">
        <ele>1495</ele>
        <time>2015-12-25T06:42:48Z</time>
      </trkpt>
      <trkpt lat="46.23048" lon="5.91237">
        <ele>1439</ele>
        <time>2015-12-25T06:44:48Z</time>
      </trkpt>
      <trkpt lat="46.22473" lon="5.90548">
        <ele>1449</ele>
        <time>2015-12-25T06:46:48Z</time>
      </trkpt>
      <trkpt lat="46.21797" lon="5.89963">
        <ele>1436</ele>
        <time>2015-12-25T06:48:48Z</time>
      </trkpt>
      <trkpt lat="46.21208" lon="5.89546">
        <ele>1437</ele>
        <time>2015-12-25T06:50:48Z</time>
      </trkpt>
      <trkpt lat="46.20389" lon="5.88961">
        <ele>1379</ele>
        <time>2015-12-25T06:52:48Z</time>
      </trkpt>
      <trkpt lat="46.19785" lon="5.88627">
        <ele>1379</ele>
        <time>2015-12-25T06:54:48Z</time>
      </trkpt>
      <trkpt lat="46.1967" lon="5.88377">
        <ele>1410</ele>
        <time>2015-12-25T06:56:48Z</time>
      </trkpt>
      <trkpt lat="46.19412" lon="5.87938">
        <ele>1394</ele>
        <time>2015-12-25T06:58:48Z</time>
      </trkpt>
      <trkpt lat="46.18995" lon="5.87792">
        <ele>1403</ele>
        <time>2015-12-25T07:00:48Z</time>
      </trkpt>
      <trkpt lat="46.18865" lon="5.87333">
        <ele>1434</ele>
        <time>2015-12-25T07:02:48Z</time>
      </trkpt>
      <trkpt lat="46.18664" lon="5.86602">
        <ele>1462</ele>
        <time>2015-12-25T07:04:48Z</time>
      </trkpt>
      <trkpt lat="46.1829" lon="5.86435">
        <ele>1404</ele>
        <time>2015-12-25T07:06:48Z</time>
      </trkpt>
      <trkpt lat="46.18262" lon="5.86289">
        <ele>1384</ele>
        <time>2015-12-25T07:08:48Z</time>
      </trkpt>
      <trkpt lat="46.18391" lon="5.85934">
        <ele>1256</ele>
        <time>2015-12-25T07:10:48Z</time>
      </trkpt>
      <trkpt lat="46.18175" lon="5.85704">
        <ele>1186</ele>
        <time>2015-12-25T07:12:48Z</time>
      </trkpt>
      <trkpt lat="46.18061" lon="5.85182">
        <ele>1137</ele>
        <time>2015-12-25T07:14:48Z</time>
      </trkpt>
      <trkpt lat="46.17644" lon="5.84785">
        <ele>1095</ele>
        <time>2015-12-25T07:16:48Z</time>
      </trkpt>
      <trkpt lat="46.17313" lon="5.8489">
        <ele>1073</ele>
        <time>2015-12-25T07:18:48Z</time>
      </trkpt>
      <trkpt lat="46.17098" lon="5.85036">
        <ele>1094</ele>
        <time>2015-12-25T07:20:48Z</time>
      </trkpt>
      <trkpt lat="46.16781" lon="5.84702">
        <ele>1079</ele>
        <time>2015-12-25T07:22:48Z</time>
      </trkpt>
      <trkpt lat="46.16336" lon="5.84764">
        <ele>1155</ele>
        <time>2015-12-25T07:24:48Z</time>
      </trkpt>
      <trkpt lat="46.16063" lon="5.8514">
        <ele>1322</ele>
        <time>2015-12-25T07:26:48Z</time>
      </trkpt>
      <trkpt lat="46.15689" lon="5.85307">
        <ele>1411</ele>
        <time>2015-12-25T07:28:48Z</time>
      </trkpt>
      <trkpt lat="46.15473" lon="5.85725">
        <ele>1459</ele>
        <time>2015-12-25T07:30:48Z</time>
      </trkpt>
      <trkpt lat="46.152" lon="5.86289">
        <ele>1592</ele>
        <time>2015-12-25T07:32:48Z</time>
      </trkpt>
      <trkpt lat="46.14798" lon="5.86706">
        <ele>1549</ele>
        <time>2015-12-25T07:34:48Z</time>
      </trkpt>
      <trkpt lat="46.14482" lon="5.86623">
        <ele>1561</ele>
        <time>2015-12-25T07:36:48Z</time>
      </trkpt>
      <trkpt lat="46.14036" lon="5.86581">
        <ele>1515</ele>
        <time>2015-12-25T07:38:48Z</time>
      </trkpt>
      <trkpt lat="46.1349" lon="5.86476">
        <ele>1453</ele>
        <time>2015-12-25T07:40:48Z</time>
      </trkpt>
      <trkpt lat="46.13016" lon="5.8656">
        <ele>1352</ele>
        <time>2015-12-25T07:42:48Z</time>
      </trkpt>
      <trkpt lat="46.12714" lon="5.86372">
        <ele>1246</ele>
        <time>2015-12-25T07:44:48Z</time>
      </trkpt>
      <trkpt lat="46.12254" lon="5.86476">
        <ele>1188</ele>
        <time>2015-12-25T07:46:48Z</time>
      </trkpt>
      <trkpt lat="46.11851" lon="5.8656">
        <ele>1078</ele>
        <time>2015-12-25T07:48:48Z</time>
      </trkpt>
      <trkpt lat="46.11679" lon="5.86414">
        <ele>945</ele>
        <time>2015-12-25T07:50:48Z</time>
      </trkpt>
      <trkpt lat="46.11679" lon="5.86017">
        <ele>874</ele>
        <time>2015-12-25T07:52:48Z</time>
      </trkpt>
      <trkpt lat="46.11794" lon="5.8562">
        <ele>814</ele>
        <time>2015-12-25T07:54:48Z</time>
      </trkpt>
      <trkpt lat="46.11607" lon="5.85453">
        <ele>770</ele>
        <time>2015-12-25T07:56:48Z</time>
      </trkpt>
      <trkpt lat="46.12067" lon="5.85119">
        <ele>723</ele>
        <time>2015-12-25T07:58:48Z</time>
      </trkpt>
      <trkpt lat="46.12225" lon="5.84555">
        <ele>654</ele>
        <time>2015-12-25T08:00:48Z</time>
      </trkpt>
      <trkpt lat="46.12283" lon="5.8395">
        <ele>541</ele>
        <time>2015-12-25T08:02:48Z</time>
      </trkpt>
      <trkpt lat="46.12556" lon="5.83344">
        <ele>487</ele>
        <time>2015-12-25T08:04:48Z</time>
      </trkpt>
      <trkpt lat="46.12556" lon="5.82864">
        <ele>489</ele>
        <time>2015-12-25T08:06:48Z</time>
      </trkpt>
      <trkpt lat="46.12153" lon="5.82217">
        <ele>388</ele>
        <time>2015-12-25T08:08:48Z</time>
      </trkpt>
      <trkpt lat="46.11808" lon="5.82405">
        <ele>371</ele>
        <time>2015-12-25T08:10:48Z</time>
      </trkpt>
      <trkpt lat="46.1132" lon="5.8253">
        <ele>380</ele>
        <time>2015-12-25T08:12:48Z</time>
      </trkpt>
      <trkpt lat="46.10917" lon="5.82655">
        <ele>359</ele>
        <time>2015-12-25T08:14:48Z</time>
      </trkpt>
    </trkseg>
  </trk>
</gpx>